Time;durP1;ratioP1;P1;durP2;ratioP2;P2;SDS_P1;SDS_P2;PMS_P1;PMS_P2;Temp;Humidity;BMP_temperature;BMP_pressure;BME280_temperature;BME280_humidity;BME280_pressure;Samples;Min_cycle;Max_cycle;Signal;HPM_P1;HPM_P2
2022/08/23 00:00:51;;;;;;;0.80;0.70;;;20.40;1.00;;;;;;5096468;28;20811;-76
2022/08/23 00:03:18;;;;;;;0.80;0.70;;;20.50;1.00;;;;;;5096335;28;20546;-75
2022/08/23 00:05:45;;;;;;;0.90;0.80;;;20.40;1.00;;;;;;5094691;28;20449;-75
2022/08/23 00:08:12;;;;;;;1.23;0.70;;;20.40;1.00;;;;;;5097267;28;20492;-76
2022/08/23 00:10:39;;;;;;;1.67;0.80;;;20.30;1.00;;;;;;5099963;28;20457;-75
2022/08/23 00:13:09;;;;;;;0.80;0.60;;;20.20;1.00;;;;;;5117907;28;20480;-75
2022/08/23 00:15:36;;;;;;;1.00;0.80;;;20.20;1.00;;;;;;5111457;28;20464;-75
2022/08/23 00:18:03;;;;;;;1.03;0.77;;;20.10;1.00;;;;;;5105777;28;20484;-75
2022/08/23 00:20:30;;;;;;;1.43;0.70;;;20.10;1.00;;;;;;5111322;28;20441;-75
2022/08/23 00:22:57;;;;;;;0.97;0.70;;;20.10;1.00;;;;;;5101051;28;20518;-73
2022/08/23 00:25:24;;;;;;;2.30;0.77;;;20.00;1.00;;;;;;5105102;28;20504;-76
2022/08/23 00:27:50;;;;;;;2.03;0.70;;;20.00;1.00;;;;;;5104972;28;20477;-76
2022/08/23 00:30:19;;;;;;;0.80;0.80;;;20.00;1.00;;;;;;5117693;28;20531;-75
2022/08/23 00:32:46;;;;;;;1.47;0.60;;;19.90;1.00;;;;;;5115772;28;20859;-76
2022/08/23 00:35:15;;;;;;;2.10;0.70;;;19.90;1.00;;;;;;5116007;28;20445;-73
2022/08/23 00:37:42;;;;;;;1.10;0.80;;;19.90;1.00;;;;;;5111823;28;20824;-75
2022/08/23 00:40:12;;;;;;;0.80;0.63;;;19.90;1.00;;;;;;5102192;28;20466;-75
2022/08/23 00:48:24;;;;;;;1.00;0.70;;;19.70;1.00;;;;;;5096415;28;20852;-75
2022/08/23 00:50:56;;;;;;;1.60;0.60;;;19.70;1.00;;;;;;5096907;28;20453;-75
2022/08/23 00:53:26;;;;;;;1.67;0.70;;;19.60;1.00;;;;;;5098259;28;20467;-75
2022/08/23 00:55:57;;;;;;;1.60;0.60;;;19.60;1.00;;;;;;5110829;28;20485;-75
2022/08/23 00:58:26;;;;;;;0.90;0.60;;;19.60;1.00;;;;;;5096506;28;20517;-75
2022/08/23 01:00:56;;;;;;;0.80;0.70;;;19.70;1.00;;;;;;5095658;28;20552;-75
2022/08/23 01:03:26;;;;;;;2.00;0.70;;;19.70;1.00;;;;;;5096724;28;20536;-75
2022/08/23 01:06:01;;;;;;;1.10;0.70;;;19.70;1.00;;;;;;5106271;28;20448;-75
2022/08/23 01:08:30;;;;;;;0.90;0.70;;;19.70;1.00;;;;;;5117231;28;20759;-75
2022/08/23 01:11:02;;;;;;;2.40;0.70;;;19.80;1.00;;;;;;5116404;28;20453;-74
2022/08/23 01:13:37;;;;;;;1.30;0.70;;;19.80;1.00;;;;;;5117527;28;20798;-75
2022/08/23 01:16:09;;;;;;;1.07;0.80;;;19.80;1.00;;;;;;5116641;28;20480;-74
2022/08/23 01:18:37;;;;;;;0.80;0.60;;;19.80;1.00;;;;;;5101508;28;20520;-74
2022/08/23 01:21:12;;;;;;;1.53;0.80;;;19.80;1.00;;;;;;5096504;28;20542;-74
2022/08/23 01:23:45;;;;;;;1.13;0.70;;;19.80;1.00;;;;;;5098275;28;20491;-75
2022/08/23 01:26:14;;;;;;;1.00;0.70;;;19.80;1.00;;;;;;5112673;28;20497;-74
2022/08/23 01:28:41;;;;;;;1.53;0.80;;;19.70;1.00;;;;;;5115605;28;20543;-74
2022/08/23 01:31:08;;;;;;;0.90;0.80;;;19.70;1.00;;;;;;5116129;28;20441;-74
2022/08/23 01:33:37;;;;;;;1.13;0.67;;;19.60;1.00;;;;;;5115462;28;20551;-74
2022/08/23 01:36:09;;;;;;;1.07;0.90;;;19.60;1.00;;;;;;5103395;28;20746;-74
2022/08/23 01:38:36;;;;;;;1.33;0.73;;;19.50;1.00;;;;;;5094181;28;20520;-75
2022/08/23 01:41:08;;;;;;;1.17;0.67;;;19.40;1.00;;;;;;5108850;28;20444;-74
2022/08/23 01:43:35;;;;;;;1.10;0.70;;;19.40;1.00;;;;;;5115228;28;20456;-74
2022/08/23 01:46:09;;;;;;;0.90;0.60;;;19.30;1.00;;;;;;5115511;28;20472;-74
2022/08/23 01:48:37;;;;;;;0.80;0.60;;;19.30;1.00;;;;;;5102518;28;20754;-75
2022/08/23 01:51:04;;;;;;;0.90;0.70;;;19.20;1.00;;;;;;5095043;28;20449;-74
2022/08/23 01:53:31;;;;;;;1.77;0.67;;;19.30;1.00;;;;;;5099797;28;20457;-75
2022/08/23 01:56:00;;;;;;;1.33;0.73;;;19.30;1.00;;;;;;5118216;28;20443;-75
2022/08/23 01:58:29;;;;;;;0.80;0.60;;;19.30;1.00;;;;;;5117142;28;20954;-75
2022/08/23 02:00:56;;;;;;;0.80;0.60;;;19.30;1.00;;;;;;5115981;28;20451;-75
2022/08/23 02:03:23;;;;;;;1.30;0.50;;;19.40;1.00;;;;;;5117156;28;20754;-75
2022/08/23 02:05:50;;;;;;;1.60;0.70;;;19.40;1.00;;;;;;5108571;28;20446;-74
2022/08/23 02:11:08;;;;;;;1.50;0.80;;;19.30;1.00;;;;;;5111730;28;20436;-75
2022/08/23 02:13:37;;;;;;;0.90;0.70;;;19.30;1.00;;;;;;5117786;28;20468;-74
2022/08/23 02:16:04;;;;;;;0.90;0.70;;;19.40;1.00;;;;;;5120294;28;20444;-75
2022/08/23 02:18:31;;;;;;;1.00;0.80;;;19.40;1.00;;;;;;5109667;28;20480;-75
2022/08/23 02:20:59;;;;;;;1.00;0.70;;;19.30;1.00;;;;;;5099998;28;20532;-75
2022/08/23 02:23:26;;;;;;;0.97;0.70;;;19.20;1.00;;;;;;5098718;28;20457;-74
2022/08/23 02:25:54;;;;;;;0.60;0.60;;;19.00;1.00;;;;;;5100372;28;20474;-75
2022/08/23 02:28:23;;;;;;;0.80;0.70;;;19.00;1.00;;;;;;5097879;28;20449;-75
2022/08/23 02:30:52;;;;;;;0.90;0.63;;;19.00;1.00;;;;;;5110492;28;20505;-75
2022/08/23 02:33:20;;;;;;;1.00;0.70;;;19.00;1.00;;;;;;5115853;28;20824;-74
2022/08/23 02:35:47;;;;;;;0.90;0.60;;;19.00;1.00;;;;;;5120228;28;20444;-75
2022/08/23 02:38:14;;;;;;;2.50;0.90;;;18.90;1.00;;;;;;5117393;28;20480;-75
2022/08/23 02:40:41;;;;;;;1.37;0.77;;;18.90;1.00;;;;;;5110516;28;20477;-75
2022/08/23 02:43:09;;;;;;;0.80;0.60;;;18.90;1.00;;;;;;5098067;28;20728;-75
2022/08/23 02:45:36;;;;;;;1.00;0.80;;;18.90;1.00;;;;;;5100101;28;20445;-75
2022/08/23 02:48:05;;;;;;;0.80;0.70;;;18.90;1.00;;;;;;5097324;28;20468;-75
2022/08/23 02:50:32;;;;;;;1.23;0.77;;;18.90;1.00;;;;;;5099569;28;20453;-75
2022/08/23 02:52:59;;;;;;;1.17;0.70;;;19.00;1.00;;;;;;5097706;28;20453;-75
2022/08/23 02:55:27;;;;;;;0.80;0.70;;;19.00;1.00;;;;;;5097886;28;20959;-75
2022/08/23 02:57:54;;;;;;;1.03;0.63;;;19.00;1.00;;;;;;5096118;28;20457;-74
2022/08/23 03:00:22;;;;;;;0.73;0.60;;;19.00;1.00;;;;;;5099033;28;20446;-74
2022/08/23 03:02:49;;;;;;;1.00;0.80;;;19.00;1.00;;;;;;5097263;28;20477;-74
2022/08/23 03:05:17;;;;;;;0.80;0.70;;;19.00;1.00;;;;;;5098472;28;20504;-74
2022/08/23 03:07:45;;;;;;;2.40;0.83;;;18.80;1.00;;;;;;5097248;28;20760;-75
2022/08/23 03:10:15;;;;;;;1.80;0.73;;;18.70;1.00;;;;;;5102936;28;20519;-75
2022/08/23 03:12:42;;;;;;;0.77;0.70;;;18.70;1.00;;;;;;5116843;28;20463;-74
2022/08/23 03:15:10;;;;;;;0.93;0.60;;;18.70;1.00;;;;;;5119192;28;20491;-74
2022/08/23 03:17:37;;;;;;;0.90;0.70;;;18.70;1.00;;;;;;5117422;28;20892;-75
2022/08/23 03:20:05;;;;;;;1.00;0.70;;;18.80;1.00;;;;;;5108184;28;21196;-76
2022/08/23 03:22:34;;;;;;;0.80;0.70;;;18.80;1.00;;;;;;5117909;28;20896;-75
2022/08/23 03:25:01;;;;;;;0.83;0.67;;;18.80;1.00;;;;;;5118582;28;20844;-75
2022/08/23 03:27:30;;;;;;;1.00;0.70;;;18.90;1.00;;;;;;5099807;28;20488;-75
2022/08/23 03:29:57;;;;;;;0.90;0.63;;;19.00;1.00;;;;;;5099755;28;20453;-75
2022/08/23 03:32:24;;;;;;;1.17;0.70;;;18.90;1.00;;;;;;5095538;28;20445;-75
2022/08/23 03:34:51;;;;;;;1.00;0.70;;;18.90;1.00;;;;;;5098750;28;20445;-75
2022/08/23 03:37:18;;;;;;;0.83;0.63;;;18.90;1.00;;;;;;5097095;28;20757;-75
2022/08/23 03:39:46;;;;;;;0.80;0.60;;;18.90;1.00;;;;;;5098568;28;20478;-76
2022/08/23 03:42:13;;;;;;;1.40;0.70;;;18.90;1.00;;;;;;5097856;28;20481;-75
2022/08/23 03:44:40;;;;;;;1.13;0.70;;;18.80;1.00;;;;;;5098224;28;20502;-76
2022/08/23 03:47:07;;;;;;;0.97;0.70;;;18.90;1.00;;;;;;5118529;28;20535;-75
2022/08/23 03:49:34;;;;;;;1.07;0.73;;;18.80;1.00;;;;;;5116383;28;20759;-75
2022/08/23 03:52:02;;;;;;;0.80;0.60;;;18.90;1.00;;;;;;5118384;28;20488;-76
2022/08/23 03:54:29;;;;;;;0.97;0.70;;;18.90;1.00;;;;;;5115524;28;20457;-76
2022/08/23 03:56:59;;;;;;;0.97;0.80;;;19.00;1.00;;;;;;5118389;28;20942;-75
2022/08/23 03:59:27;;;;;;;1.37;0.83;;;19.00;1.00;;;;;;5117208;28;20587;-75
2022/08/23 04:01:55;;;;;;;1.20;1.00;;;18.90;1.00;;;;;;5117791;28;20896;-74
2022/08/23 04:04:22;;;;;;;1.17;0.83;;;18.90;1.00;;;;;;5118222;28;20537;-74
2022/08/23 04:06:49;;;;;;;1.30;0.80;;;18.80;1.00;;;;;;5105416;28;20487;-74
2022/08/23 04:09:17;;;;;;;1.17;0.80;;;18.70;1.00;;;;;;5116585;28;20526;-74
2022/08/23 04:11:44;;;;;;;1.00;0.80;;;18.70;1.00;;;;;;5114799;28;20481;-75
2022/08/23 04:14:12;;;;;;;1.10;0.70;;;18.60;1.00;;;;;;5095594;28;20489;-74
2022/08/23 04:16:40;;;;;;;1.50;0.70;;;18.60;1.00;;;;;;5098669;28;20450;-74
2022/08/23 04:19:09;;;;;;;1.03;0.80;;;18.50;1.00;;;;;;5102366;28;20504;-74
2022/08/23 04:21:39;;;;;;;1.37;0.70;;;18.70;1.00;;;;;;5118006;28;20445;-75
2022/08/23 04:24:07;;;;;;;1.00;0.90;;;18.70;1.00;;;;;;5106557;28;20516;-74
2022/08/23 04:26:34;;;;;;;0.97;0.60;;;18.60;1.00;;;;;;5096779;28;20438;-76
2022/08/23 04:29:01;;;;;;;0.80;0.70;;;18.60;1.00;;;;;;5094917;28;20757;-75
2022/08/23 04:31:32;;;;;;;0.97;0.70;;;18.60;1.00;;;;;;5112530;28;20480;-75
2022/08/23 04:33:59;;;;;;;1.53;0.80;;;18.60;1.00;;;;;;5113506;28;20452;-76
2022/08/23 04:36:26;;;;;;;0.70;0.60;;;18.50;1.00;;;;;;5115183;28;20505;-75
2022/08/23 04:38:53;;;;;;;0.90;0.60;;;18.40;1.00;;;;;;5112237;28;20831;-75
2022/08/23 04:44:05;;;;;;;0.93;0.63;;;18.20;1.00;;;;;;5095668;28;20433;-74
2022/08/23 04:46:33;;;;;;;1.10;0.70;;;18.30;1.00;;;;;;5096177;28;20469;-75
2022/08/23 04:49:00;;;;;;;1.43;0.60;;;18.30;1.00;;;;;;5095058;28;20519;-75
2022/08/23 04:51:28;;;;;;;0.87;0.60;;;18.40;1.00;;;;;;5100247;28;20447;-75
2022/08/23 04:53:55;;;;;;;0.83;0.60;;;18.50;1.00;;;;;;5093584;28;20471;-75
2022/08/23 04:56:23;;;;;;;1.20;0.70;;;18.50;1.00;;;;;;5095398;28;20457;-74
2022/08/23 04:58:50;;;;;;;0.83;0.70;;;18.60;1.00;;;;;;5094091;28;20454;-74
2022/08/23 05:01:17;;;;;;;0.93;0.70;;;18.60;1.00;;;;;;5096366;28;20907;-74
2022/08/23 05:03:45;;;;;;;1.00;0.73;;;18.70;1.00;;;;;;5093719;28;20467;-74
2022/08/23 05:06:12;;;;;;;1.00;0.73;;;18.70;1.00;;;;;;5096226;28;20492;-74
2022/08/23 05:08:39;;;;;;;1.47;0.70;;;18.80;1.00;;;;;;5095227;28;20458;-74
2022/08/23 05:11:08;;;;;;;0.70;0.70;;;18.90;1.00;;;;;;5096689;28;20496;-74
2022/08/23 05:13:36;;;;;;;0.70;0.67;;;18.90;1.00;;;;;;5094602;28;20508;-74
2022/08/23 05:16:04;;;;;;;0.97;0.77;;;19.00;1.00;;;;;;5107372;28;20456;-74
2022/08/23 05:18:32;;;;;;;1.00;0.80;;;19.00;1.00;;;;;;5113950;28;20539;-74
2022/08/23 05:21:01;;;;;;;1.00;0.80;;;19.10;1.00;;;;;;5115783;28;20533;-74
2022/08/23 05:23:28;;;;;;;0.90;0.70;;;19.20;1.00;;;;;;5102227;28;20818;-74
2022/08/23 05:25:55;;;;;;;1.00;0.80;;;19.30;1.00;;;;;;5103287;28;20445;-73
2022/08/23 05:28:26;;;;;;;0.80;0.70;;;19.20;1.00;;;;;;5094498;28;20514;-74
2022/08/23 05:30:59;;;;;;;0.83;0.70;;;19.20;1.00;;;;;;5096095;28;20536;-73
2022/08/23 05:33:26;;;;;;;1.10;0.77;;;19.20;1.00;;;;;;5105923;28;20452;-72
2022/08/23 05:35:53;;;;;;;1.97;0.80;;;19.20;1.00;;;;;;5114841;28;20484;-72
2022/08/23 05:38:22;;;;;;;0.90;0.70;;;19.30;1.00;;;;;;5113355;28;20453;-73
2022/08/23 05:40:50;;;;;;;2.77;0.70;;;19.40;1.00;;;;;;5115413;28;20476;-72
2022/08/23 05:43:17;;;;;;;1.00;0.70;;;19.40;1.00;;;;;;5112071;28;20461;-73
2022/08/23 05:45:44;;;;;;;1.10;0.90;;;19.40;1.00;;;;;;5114859;28;20536;-73
2022/08/23 05:48:12;;;;;;;0.90;0.77;;;19.60;1.00;;;;;;5112719;28;20456;-72
2022/08/23 05:50:40;;;;;;;1.80;0.70;;;19.50;1.00;;;;;;5114876;28;20502;-72
2022/08/23 05:53:10;;;;;;;0.90;0.70;;;19.40;1.00;;;;;;5107968;28;20511;-71
2022/08/23 05:55:39;;;;;;;1.90;1.00;;;19.30;1.00;;;;;;5099908;28;20457;-72
2022/08/23 05:58:05;;;;;;;1.40;0.80;;;19.20;1.00;;;;;;5092947;28;21070;-72
2022/08/23 06:00:33;;;;;;;1.30;0.90;;;19.10;1.00;;;;;;5095547;28;20473;-72
2022/08/23 06:03:00;;;;;;;0.80;0.70;;;19.10;1.00;;;;;;5088665;28;20476;-72
2022/08/23 06:05:27;;;;;;;0.90;0.80;;;19.10;1.00;;;;;;5092374;28;20489;-72
2022/08/23 06:07:59;;;;;;;1.20;0.80;;;19.10;1.00;;;;;;5093020;28;20529;-72
2022/08/23 06:10:26;;;;;;;1.10;0.70;;;19.10;1.00;;;;;;5102001;28;20465;-72
2022/08/23 06:12:54;;;;;;;0.83;0.70;;;19.10;1.00;;;;;;5109466;28;20452;-72
2022/08/23 06:15:21;;;;;;;0.90;0.70;;;19.10;1.00;;;;;;5105943;28;20495;-72
2022/08/23 06:17:48;;;;;;;2.40;0.70;;;19.20;1.00;;;;;;5092158;28;20449;-72
2022/08/23 06:20:15;;;;;;;0.80;0.60;;;19.30;1.00;;;;;;5108667;28;20563;-72
2022/08/23 06:22:42;;;;;;;4.50;0.77;;;19.40;1.00;;;;;;5092885;28;20519;-72
2022/08/23 06:25:09;;;;;;;1.37;0.80;;;19.40;1.00;;;;;;5098411;28;20565;-73
2022/08/23 06:27:36;;;;;;;2.20;0.80;;;19.50;1.00;;;;;;5113987;28;20457;-73
2022/08/23 06:30:07;;;;;;;1.20;0.77;;;19.50;1.00;;;;;;5110789;28;20507;-72
2022/08/23 06:32:34;;;;;;;1.23;0.70;;;19.50;1.00;;;;;;5091659;28;20751;-72
2022/08/23 06:35:01;;;;;;;1.27;0.70;;;19.60;1.00;;;;;;5112082;28;20444;-72
2022/08/23 06:37:28;;;;;;;0.80;0.63;;;19.80;1.00;;;;;;5113239;28;20445;-72
2022/08/23 06:39:56;;;;;;;1.37;0.70;;;20.10;1.00;;;;;;5113664;28;20522;-72
2022/08/23 06:42:24;;;;;;;1.20;0.80;;;20.30;1.00;;;;;;5095683;28;20540;-73
2022/08/23 06:44:51;;;;;;;1.80;0.80;;;20.40;1.00;;;;;;5096959;28;20814;-72
2022/08/23 06:47:20;;;;;;;1.10;0.80;;;20.40;1.00;;;;;;5098044;28;20503;-72
2022/08/23 06:49:49;;;;;;;1.10;0.80;;;20.40;1.00;;;;;;5119410;28;20443;-73
2022/08/23 06:52:17;;;;;;;1.17;0.80;;;20.40;1.00;;;;;;5115096;28;20964;-73
2022/08/23 06:54:45;;;;;;;1.00;0.80;;;20.50;1.00;;;;;;5114119;28;20928;-73
2022/08/23 06:57:13;;;;;;;2.97;0.70;;;20.60;1.00;;;;;;5095694;28;20590;-72
2022/08/23 06:59:40;;;;;;;0.93;0.70;;;20.50;1.00;;;;;;5097906;28;20481;-73
2022/08/23 07:02:09;;;;;;;1.27;0.80;;;20.60;1.00;;;;;;5095486;28;20534;-73
2022/08/23 07:04:38;;;;;;;1.37;1.00;;;20.80;1.00;;;;;;5093175;28;21009;-74
2022/08/23 07:07:07;;;;;;;1.27;1.00;;;20.90;1.00;;;;;;5096180;28;20506;-74
2022/08/23 07:09:34;;;;;;;1.30;0.80;;;21.00;1.00;;;;;;5094129;28;20484;-74
2022/08/23 07:12:02;;;;;;;2.70;1.00;;;21.10;1.00;;;;;;5097585;28;20548;-73
2022/08/23 07:14:29;;;;;;;1.20;0.90;;;21.30;1.00;;;;;;5095689;28;20758;-73
2022/08/23 07:17:00;;;;;;;3.07;1.00;;;21.30;1.00;;;;;;5096796;28;20496;-73
2022/08/23 07:19:29;;;;;;;0.90;0.80;;;21.30;1.00;;;;;;5096439;28;20497;-73
2022/08/23 07:21:59;;;;;;;1.80;1.00;;;21.30;1.00;;;;;;5097797;28;20449;-73
2022/08/23 07:24:27;;;;;;;2.70;1.00;;;21.30;1.00;;;;;;5093046;28;20500;-73
2022/08/23 07:26:54;;;;;;;1.33;0.80;;;21.30;1.00;;;;;;5095421;28;20438;-72
2022/08/23 07:29:22;;;;;;;1.67;0.80;;;21.40;1.00;;;;;;5092394;28;20453;-74
2022/08/23 07:31:53;;;;;;;0.90;0.80;;;21.40;1.00;;;;;;5093117;28;20433;-73
2022/08/23 07:34:21;;;;;;;0.97;0.80;;;21.50;1.00;;;;;;5091039;28;20529;-73
2022/08/23 07:36:50;;;;;;;2.90;0.90;;;21.60;1.00;;;;;;5093750;28;20455;-73
2022/08/23 07:39:19;;;;;;;1.90;1.00;;;21.70;1.00;;;;;;5093160;28;20485;-73
2022/08/23 07:41:46;;;;;;;1.67;0.90;;;21.80;1.00;;;;;;5094972;28;21040;-72
2022/08/23 07:44:14;;;;;;;1.90;1.00;;;21.90;1.00;;;;;;5095413;28;20534;-71
2022/08/23 07:46:43;;;;;;;2.07;1.10;;;22.00;1.00;;;;;;5096858;28;20207;-72
2022/08/23 07:49:11;;;;;;;1.57;0.90;;;22.10;1.00;;;;;;5094156;28;20500;-73
2022/08/23 07:51:40;;;;;;;1.60;0.90;;;22.20;1.00;;;;;;5096232;28;21147;-72
2022/08/23 07:54:09;;;;;;;1.07;0.80;;;22.40;1.00;;;;;;5095867;28;20454;-72
2022/08/23 07:56:38;;;;;;;1.40;1.00;;;22.50;1.00;;;;;;5097482;28;20474;-73
2022/08/23 07:59:06;;;;;;;1.30;0.90;;;22.60;1.00;;;;;;5096067;28;20477;-72
2022/08/23 08:01:33;;;;;;;1.33;0.90;;;22.70;1.00;;;;;;5099904;28;21011;-72
2022/08/23 08:04:02;;;;;;;1.20;0.90;;;22.80;1.00;;;;;;5101695;28;20494;-71
2022/08/23 08:06:31;;;;;;;18.83;11.93;;;22.80;1.00;;;;;;5106888;28;20546;-72
2022/08/23 08:08:59;;;;;;;1.37;0.80;;;22.90;1.00;;;;;;5095798;28;20448;-72
2022/08/23 08:11:29;;;;;;;1.60;0.90;;;22.90;1.00;;;;;;5096800;28;20726;-72
2022/08/23 08:13:58;;;;;;;1.03;0.80;;;22.90;1.00;;;;;;5108754;28;20449;-72
2022/08/23 08:16:27;;;;;;;1.80;1.00;;;23.10;1.00;;;;;;5096354;28;20442;-74
2022/08/23 08:18:55;;;;;;;1.83;0.83;;;23.20;1.00;;;;;;5096169;28;20449;-73
2022/08/23 08:21:22;;;;;;;1.50;0.80;;;23.30;1.00;;;;;;5102616;28;20474;-73
2022/08/23 08:23:50;;;;;;;5.87;0.97;;;23.40;1.00;;;;;;5099474;28;20550;-74
2022/08/23 08:26:17;;;;;;;1.40;0.80;;;23.50;1.00;;;;;;5115208;28;20506;-73
2022/08/23 08:28:45;;;;;;;3.23;0.90;;;23.50;1.00;;;;;;5110115;28;20454;-74
2022/08/23 08:31:13;;;;;;;4.17;0.80;;;23.70;1.00;;;;;;5117754;28;20490;-74
2022/08/23 08:33:40;;;;;;;1.50;0.90;;;23.70;1.00;;;;;;5106675;28;20454;-74
2022/08/23 08:36:08;;;;;;;1.50;0.70;;;23.90;1.00;;;;;;5115954;28;20888;-74
2022/08/23 08:38:38;;;;;;;1.10;0.80;;;24.00;1.00;;;;;;5107727;28;20499;-74
2022/08/23 08:41:11;;;;;;;1.13;0.80;;;24.10;1.00;;;;;;5103833;28;20469;-74
2022/08/23 08:43:57;;;;;;;1.70;0.80;;;24.30;1.00;;;;;;5102019;28;20457;-74
2022/08/23 08:46:38;;;;;;;1.23;0.90;;;24.30;1.00;;;;;;5099889;28;20445;-75
2022/08/23 08:49:10;;;;;;;2.30;0.90;;;24.50;1.00;;;;;;5097233;28;20465;-74
2022/08/23 08:51:44;;;;;;;1.30;0.87;;;24.50;1.00;;;;;;5095807;28;20536;-73
2022/08/23 08:54:15;;;;;;;1.23;0.70;;;24.70;1.00;;;;;;5108668;28;20899;-74
2022/08/23 08:56:43;;;;;;;1.73;0.80;;;24.80;1.00;;;;;;5114945;28;20441;-74
2022/08/23 08:59:15;;;;;;;1.77;0.80;;;24.90;1.00;;;;;;5104159;28;20457;-73
2022/08/23 09:01:43;;;;;;;0.80;0.60;;;25.00;1.00;;;;;;5098113;28;20936;-73
2022/08/23 09:04:11;;;;;;;1.23;0.70;;;25.00;1.00;;;;;;5097284;28;20542;-73
2022/08/23 09:06:51;;;;;;;1.10;0.60;;;25.10;1.00;;;;;;5113296;28;20449;-74
2022/08/23 09:09:35;;;;;;;0.83;0.70;;;25.00;1.00;;;;;;5109433;28;20528;-73
2022/08/23 09:12:12;;;;;;;1.30;1.00;;;25.10;1.00;;;;;;5097530;28;20467;-72
2022/08/23 09:14:58;;;;;;;5.53;0.90;;;25.30;1.00;;;;;;5116225;28;20812;-72
2022/08/23 09:17:40;;;;;;;3.33;0.87;;;25.40;1.00;;;;;;5104579;28;20958;-72
2022/08/23 09:20:08;;;;;;;1.00;0.80;;;25.50;1.00;;;;;;5092454;28;20461;-73
2022/08/23 09:22:39;;;;;;;0.90;0.77;;;25.50;1.00;;;;;;5100479;28;20474;-73
2022/08/23 09:25:09;;;;;;;1.53;0.93;;;25.60;1.00;;;;;;5096207;28;20507;-74
2022/08/23 09:27:37;;;;;;;1.50;0.77;;;25.80;1.00;;;;;;5110495;28;20449;-73
2022/08/23 09:30:05;;;;;;;1.47;0.87;;;26.00;1.00;;;;;;5114533;28;20515;-73
2022/08/23 09:32:36;;;;;;;2.77;0.90;;;26.00;1.00;;;;;;5115424;28;20531;-74
2022/08/23 09:35:11;;;;;;;1.57;0.87;;;26.20;1.00;;;;;;5114128;28;20839;-73
2022/08/23 09:37:57;;;;;;;0.90;0.60;;;26.20;1.00;;;;;;5114068;28;20429;-74
2022/08/23 09:40:37;;;;;;;0.87;0.73;;;26.20;1.00;;;;;;5111952;28;20952;-74
2022/08/23 09:43:12;;;;;;;1.03;0.80;;;26.10;1.00;;;;;;5114864;28;20501;-74
2022/08/23 09:45:43;;;;;;;1.10;0.73;;;26.00;1.00;;;;;;5112866;28;20454;-75
2022/08/23 09:48:15;;;;;;;1.33;0.73;;;26.00;1.00;;;;;;5116087;28;20451;-74
2022/08/23 09:50:49;;;;;;;0.70;0.60;;;26.20;1.00;;;;;;5106898;28;20467;-74
2022/08/23 09:53:25;;;;;;;1.13;0.70;;;26.40;1.00;;;;;;5115782;28;20531;-75
2022/08/23 09:55:56;;;;;;;0.90;0.70;;;26.50;1.00;;;;;;5109636;28;20751;-73
2022/08/23 09:58:31;;;;;;;0.67;0.53;;;26.70;1.00;;;;;;5094364;28;20445;-74
2022/08/23 10:01:10;;;;;;;0.60;0.60;;;26.90;1.00;;;;;;5085166;28;20473;-74
2022/08/23 10:03:40;;;;;;;0.60;0.57;;;27.10;1.00;;;;;;5108905;28;20491;-75
2022/08/23 10:06:10;;;;;;;1.70;0.60;;;27.20;1.00;;;;;;5110994;28;20456;-72
2022/08/23 10:08:50;;;;;;;0.70;0.60;;;27.40;1.00;;;;;;5103662;28;20537;-73
2022/08/23 10:11:19;;;;;;;0.80;0.60;;;27.60;1.00;;;;;;5092781;28;20448;-73
2022/08/23 10:13:46;;;;;;;0.70;0.57;;;27.80;1.00;;;;;;5107658;28;20442;-73
2022/08/23 10:16:22;;;;;;;1.37;0.50;;;27.90;1.00;;;;;;5107408;28;20533;-73
2022/08/23 10:19:00;;;;;;;0.90;0.50;;;28.00;1.00;;;;;;5105752;28;20440;-73
2022/08/23 10:21:34;;;;;;;0.90;0.60;;;28.10;1.00;;;;;;5096216;28;20512;-73
2022/08/23 10:24:18;;;;;;;1.03;0.70;;;28.10;1.00;;;;;;5114596;28;20669;-74
2022/08/23 10:26:59;;;;;;;1.27;0.70;;;28.50;1.00;;;;;;5116019;28;20483;-72
2022/08/23 10:29:39;;;;;;;0.90;0.60;;;28.70;1.00;;;;;;5096594;28;20895;-74
2022/08/23 10:32:24;;;;;;;1.07;0.70;;;28.90;1.00;;;;;;5098033;28;20942;-73
2022/08/23 10:35:06;;;;;;;0.77;0.60;;;29.30;1.00;;;;;;5104753;28;20479;-71
2022/08/23 10:37:51;;;;;;;0.90;0.70;;;29.80;1.00;;;;;;5097421;28;20536;-71
2022/08/23 10:40:27;;;;;;;0.77;0.60;;;30.10;1.00;;;;;;5099654;28;20899;-72
2022/08/23 10:43:08;;;;;;;1.10;0.57;;;30.30;1.00;;;;;;5118873;28;20535;-72
2022/08/23 10:45:37;;;;;;;0.60;0.50;;;30.10;1.00;;;;;;5107706;28;20461;-72
2022/08/23 10:48:28;;;;;;;1.00;0.50;;;30.00;1.00;;;;;;5102553;28;20492;-73
2022/08/23 10:51:00;;;;;;;1.23;0.60;;;29.70;1.00;;;;;;5099318;28;20453;-73
2022/08/23 10:53:37;;;;;;;0.60;0.50;;;29.80;1.00;;;;;;5096809;28;20446;-73
2022/08/23 10:56:06;;;;;;;0.73;0.60;;;30.20;1.00;;;;;;5102820;28;20459;-72
2022/08/23 10:58:42;;;;;;;0.60;0.50;;;30.60;1.00;;;;;;5096866;28;20445;-73
2022/08/23 11:01:12;;;;;;;0.83;0.70;;;31.00;1.00;;;;;;5103374;28;20483;-73
2022/08/23 11:03:44;;;;;;;0.77;0.63;;;31.00;1.00;;;;;;5109971;28;20511;-73
2022/08/23 11:06:45;;;;;;;1.13;0.50;;;31.00;1.00;;;;;;5093315;28;20542;-73
2022/08/23 11:09:45;;;;;;;0.80;0.63;;;31.20;1.00;;;;;;5065719;28;20541;-73
2022/08/23 11:12:20;;;;;;;0.70;0.50;;;31.40;1.00;;;;;;5115676;28;20470;-74
2022/08/23 11:14:58;;;;;;;1.37;0.60;;;31.50;1.00;;;;;;5102221;28;20535;-73
2022/08/23 11:17:28;;;;;;;0.60;0.57;;;31.40;1.00;;;;;;5116035;28;20884;-73
2022/08/23 11:19:58;;;;;;;1.33;0.70;;;31.10;1.00;;;;;;5113577;28;20452;-72
2022/08/23 11:22:28;;;;;;;1.70;0.50;;;31.00;1.00;;;;;;5111399;28;20808;-72
2022/08/23 11:24:58;;;;;;;0.70;0.50;;;31.00;1.00;;;;;;5116554;28;20479;-73
2022/08/23 11:27:32;;;;;;;0.60;0.60;;;31.10;1.00;;;;;;5118091;28;20480;-72
2022/08/23 11:30:36;;;;;;;0.70;0.50;;;31.40;1.00;;;;;;5115653;28;20451;-72
2022/08/23 11:33:15;;;;;;;0.97;0.60;;;31.40;1.00;;;;;;5116077;28;20476;-73
2022/08/23 11:35:44;;;;;;;0.70;0.60;;;31.40;1.00;;;;;;5109021;28;20464;-72
2022/08/23 11:38:14;;;;;;;0.80;0.60;;;31.50;99.90;;;;;;5116121;28;20437;-73
2022/08/23 11:40:59;;;;;;;1.70;0.53;;;31.10;99.90;;;;;;5109545;28;20820;-72
2022/08/23 11:43:30;;;;;;;1.20;0.50;;;31.30;99.90;;;;;;5117254;28;20476;-72
2022/08/23 11:46:22;;;;;;;1.10;0.63;;;31.60;99.90;;;;;;5111125;28;20760;-72
2022/08/23 11:48:55;;;;;;;0.87;0.50;;;31.60;99.90;;;;;;5116008;28;20805;-73
2022/08/23 11:51:31;;;;;;;2.17;2.10;;;31.70;99.90;;;;;;5115299;28;20824;-73
2022/08/23 11:54:37;;;;;;;0.60;0.50;;;31.90;99.90;;;;;;5116296;28;20493;-74
2022/08/23 11:57:18;;;;;;;1.43;0.60;;;31.20;99.90;;;;;;5114208;28;20444;-72
2022/08/23 12:00:06;;;;;;;1.67;0.60;;;31.20;99.90;;;;;;5109962;28;20711;-73
2022/08/23 12:02:46;;;;;;;0.63;0.60;;;31.10;99.90;;;;;;5114275;28;20644;-73
2022/08/23 12:05:31;;;;;;;1.00;0.50;;;31.40;99.90;;;;;;5106864;28;20548;-72
2022/08/23 12:08:33;;;;;;;0.87;0.70;;;31.40;99.90;;;;;;5097453;28;20889;-72
2022/08/23 12:11:09;;;;;;;0.90;0.60;;;31.50;99.90;;;;;;5092246;28;20454;-72
2022/08/23 12:13:58;;;;;;;0.90;0.50;;;31.80;99.90;;;;;;5115642;28;20470;-73
2022/08/23 12:16:39;;;;;;;0.90;0.70;;;32.20;99.90;;;;;;5109078;28;20800;-72
2022/08/23 12:19:29;;;;;;;1.33;1.07;;;32.60;99.90;;;;;;5116399;28;20448;-73
2022/08/23 12:21:57;;;;;;;1.20;0.90;;;32.90;99.90;;;;;;5091124;28;20478;-73
2022/08/23 12:24:29;;;;;;;0.87;0.60;;;32.60;99.90;;;;;;5093933;28;20941;-73
2022/08/23 12:27:10;;;;;;;0.77;0.60;;;32.50;99.90;;;;;;5093262;28;20808;-74
2022/08/23 12:29:59;;;;;;;0.70;0.60;;;32.70;99.90;;;;;;5094870;28;20437;-74
2022/08/23 12:32:36;;;;;;;0.83;0.60;;;32.80;99.90;;;;;;5093989;28;20449;-74
2022/08/23 12:35:29;;;;;;;1.63;0.50;;;32.60;99.90;;;;;;5092291;28;20481;-74
2022/08/23 12:38:01;;;;;;;3.50;0.70;;;31.80;99.90;;;;;;5093101;28;20449;-74
2022/08/23 12:40:33;;;;;;;0.80;0.60;;;31.80;99.90;;;;;;5095445;28;20461;-74
2022/08/23 12:43:09;;;;;;;0.70;0.60;;;31.80;99.90;;;;;;5092664;28;20457;-73
2022/08/23 12:45:39;;;;;;;2.60;0.60;;;32.10;99.90;;;;;;5097409;28;20448;-74
2022/08/23 12:48:08;;;;;;;0.80;0.67;;;32.20;99.90;;;;;;5095335;28;20503;-74
2022/08/23 12:50:39;;;;;;;0.60;0.50;;;32.00;99.90;;;;;;5097248;28;20524;-75
2022/08/23 12:53:09;;;;;;;0.70;0.60;;;32.10;99.90;;;;;;5097560;28;20892;-75
2022/08/23 12:55:41;;;;;;;0.70;0.60;;;32.10;99.90;;;;;;5096828;28;20473;-75
2022/08/23 12:58:11;;;;;;;0.70;0.60;;;31.90;99.90;;;;;;5096250;28;20453;-74
2022/08/23 13:00:42;;;;;;;0.60;0.50;;;31.70;99.90;;;;;;5096684;28;20545;-74
2022/08/23 13:03:17;;;;;;;0.70;0.57;;;31.80;99.90;;;;;;5093736;28;20488;-74
2022/08/23 13:05:47;;;;;;;1.07;0.60;;;32.00;99.90;;;;;;5096201;28;20449;-75
2022/08/23 13:08:18;;;;;;;2.17;0.50;;;32.00;99.90;;;;;;5096150;28;20454;-74
2022/08/23 13:10:46;;;;;;;0.77;0.60;;;32.30;99.90;;;;;;5096653;28;20549;-74
2022/08/23 13:13:19;;;;;;;0.70;0.60;;;32.20;99.90;;;;;;5093998;28;20453;-74
2022/08/23 13:15:50;;;;;;;1.20;0.60;;;32.10;99.90;;;;;;5096550;28;20445;-74
2022/08/23 13:18:33;;;;;;;0.90;0.70;;;32.20;99.90;;;;;;5094563;28;20968;-75
2022/08/23 13:21:19;;;;;;;0.70;0.60;;;32.60;99.90;;;;;;5096404;28;20812;-74
2022/08/23 13:23:46;;;;;;;0.73;0.63;;;32.40;99.90;;;;;;5082822;28;20584;-74
2022/08/23 13:26:36;;;;;;;1.00;0.80;;;32.50;99.90;;;;;;5096137;28;20453;-74